Time;durP1;ratioP1;P1;durP2;ratioP2;P2;SDS_P1;SDS_P2;PMS_P1;PMS_P2;Temp;Humidity;BMP_temperature;BMP_pressure;BME280_temperature;BME280_humidity;BME280_pressure;Samples;Min_cycle;Max_cycle;Signal;HPM_P1;HPM_P2
2022/10/10 00:01:20;;;;;;;;;;;;;;;18.91;76.17;97723.52;596324;238;62756;-71
2022/10/10 00:03:48;;;;;;;;;;;;;;;18.90;76.37;97722.69;596253;238;67492;-71
2022/10/10 00:06:16;;;;;;;;;;;;;;;18.91;76.57;97721.66;596222;238;66666;-71
2022/10/10 00:08:44;;;;;;;;;;;;;;;18.90;75.80;97724.55;596286;238;62925;-72
2022/10/10 00:11:12;;;;;;;;;;;;;;;18.90;75.85;97724.55;596312;238;64377;-71
2022/10/10 00:13:40;;;;;;;;;;;;;;;18.91;75.79;97734.17;596301;238;66415;-72
2022/10/10 00:16:07;;;;;;;;;;;;;;;18.90;76.21;97729.87;596378;238;65247;-72
2022/10/10 00:18:35;;;;;;;;;;;;;;;18.90;76.27;97733.34;596292;236;66531;-71
2022/10/10 00:21:02;;;;;;;;;;;;;;;18.91;76.13;97731.51;596314;238;66369;-72
2022/10/10 00:23:30;;;;;;;;;;;;;;;18.91;76.14;97728.84;596315;238;64942;-71
2022/10/10 00:25:58;;;;;;;;;;;;;;;18.90;75.92;97735.20;596316;238;63972;-72
2022/10/10 00:28:25;;;;;;;;;;;;;;;18.90;76.20;97729.87;596370;238;64281;-71
2022/10/10 00:30:53;;;;;;;;;;;;;;;18.90;76.23;97732.53;596299;238;62838;-71
2022/10/10 00:33:21;;;;;;;;;;;;;;;18.90;76.39;97732.53;596292;238;66946;-72
2022/10/10 00:35:48;;;;;;;;;;;;;;;18.91;76.27;97734.17;596310;238;66512;-72
2022/10/10 00:38:16;;;;;;;;;;;;;;;18.90;76.04;97737.86;596310;235;66011;-72
2022/10/10 00:40:45;;;;;;;;;;;;;;;18.89;75.95;97729.07;596157;238;67420;-72
2022/10/10 00:43:13;;;;;;;;;;;;;;;18.90;76.25;97735.20;593195;239;65006;-72
2022/10/10 00:45:42;;;;;;;;;;;;;;;18.89;76.06;97739.73;593141;239;65097;-72
2022/10/10 00:48:19;;;;;;;;;;;;;;;18.89;75.81;97736.26;593182;239;66667;-72
2022/10/10 00:50:51;;;;;;;;;;;;;;;18.89;75.50;97736.26;593216;239;67134;-73
2022/10/10 00:53:20;;;;;;;;;;;;;;;18.89;75.76;97738.92;593195;237;64871;-73
2022/10/10 00:55:48;;;;;;;;;;;;;;;18.89;75.80;97742.39;593211;239;66665;-73
2022/10/10 00:58:16;;;;;;;;;;;;;;;18.88;76.00;97738.13;593176;239;66436;-73
2022/10/10 01:00:44;;;;;;;;;;;;;;;18.89;75.98;97741.58;593201;239;65029;-73
2022/10/10 01:03:11;;;;;;;;;;;;;;;18.89;76.05;97746.91;593169;239;66855;-73
2022/10/10 01:05:40;;;;;;;;;;;;;;;18.89;76.33;97745.05;593211;239;66281;-73
2022/10/10 01:08:09;;;;;;;;;;;;;;;18.89;76.24;97749.58;593212;239;63051;-73
2022/10/10 01:10:38;;;;;;;;;;;;;;;18.88;76.24;97754.09;593202;239;64504;-73
2022/10/10 01:13:06;;;;;;;;;;;;;;;18.88;75.31;97743.45;593097;239;67156;-73
2022/10/10 01:15:38;;;;;;;;;;;;;;;18.88;75.76;97748.77;593098;239;63804;-73
2022/10/10 01:18:24;;;;;;;;;;;;;;;18.89;75.93;97749.58;592916;239;66615;-73
2022/10/10 01:20:53;;;;;;;;;;;;;;;18.88;76.08;97747.94;593156;239;67704;-73
2022/10/10 01:23:25;;;;;;;;;;;;;;;18.88;76.67;97753.27;592498;239;65112;-72
2022/10/10 01:26:01;;;;;;;;;;;;;;;18.87;76.15;97738.34;593169;239;66557;-73
2022/10/10 01:28:30;;;;;;;;;;;;;;;18.87;76.41;97741.01;590310;239;67712;-73
2022/10/10 01:30:58;;;;;;;;;;;;;;;18.88;76.55;97742.61;593037;239;64876;-71
2022/10/10 01:33:27;;;;;;;;;;;;;;;18.87;76.79;97739.15;593189;239;66541;-71
2022/10/10 01:35:56;;;;;;;;;;;;;;;18.87;76.28;97741.01;592475;239;66412;-71
2022/10/10 01:38:31;;;;;;;;;;;;;;;18.85;76.11;97739.41;593219;239;62828;-73
2022/10/10 01:41:00;;;;;;;;;;;;;;;18.87;76.24;97735.68;593547;238;64096;-73
2022/10/10 01:43:29;;;;;;;;;;;;;;;18.87;75.52;97741.01;595842;238;65207;-73
2022/10/10 01:45:57;;;;;;;;;;;;;;;18.87;75.85;97744.47;596283;235;65105;-71
2022/10/10 01:48:31;;;;;;;;;;;;;;;18.85;75.92;97750.06;596301;238;66848;-71
2022/10/10 01:51:03;;;;;;;;;;;;;;;18.85;75.94;97744.73;596330;238;66449;-72
2022/10/10 01:53:41;;;;;;;;;;;;;;;18.86;76.46;97745.53;596141;238;62707;-71
2022/10/10 01:56:10;;;;;;;;;;;;;;;18.86;76.23;97750.86;596285;238;66742;-72
2022/10/10 01:58:57;;;;;;;;;;;;;;;18.85;76.05;97752.72;596226;236;66199;-72
2022/10/10 02:01:27;;;;;;;;;;;;;;;18.85;76.47;97749.22;590019;239;63857;-72
2022/10/10 02:03:55;;;;;;;;;;;;;;;18.84;76.07;97748.42;590128;239;64176;-72
2022/10/10 02:06:25;;;;;;;;;;;;;;;18.85;76.26;97758.05;592307;238;66421;-71
2022/10/10 02:08:53;;;;;;;;;;;;;;;18.84;76.26;97756.41;596204;238;66050;-72
2022/10/10 02:11:23;;;;;;;;;;;;;;;18.85;76.17;97765.20;596230;236;66695;-71
2022/10/10 02:13:52;;;;;;;;;;;;;;;18.84;75.79;97767.06;596317;238;66605;-72
2022/10/10 02:16:24;;;;;;;;;;;;;;;18.85;76.09;97778.52;596287;238;62800;-72
2022/10/10 02:18:53;;;;;;;;;;;;;;;18.85;76.21;97776.69;596190;238;66594;-72
2022/10/10 02:21:22;;;;;;;;;;;;;;;18.84;76.07;97780.38;596352;238;64302;-72
2022/10/10 02:23:50;;;;;;;;;;;;;;;18.84;76.39;97777.72;596230;238;63030;-72
2022/10/10 02:26:18;;;;;;;;;;;;;;;18.85;75.80;97781.19;596306;238;66529;-72
2022/10/10 02:28:47;;;;;;;;;;;;;;;18.84;75.98;97790.23;596296;238;64085;-72
2022/10/10 02:31:16;;;;;;;;;;;;;;;18.84;76.20;97791.03;596252;236;64857;-72
2022/10/10 02:33:48;;;;;;;;;;;;;;;18.84;76.40;97793.70;596284;236;67367;-72
2022/10/10 02:36:17;;;;;;;;;;;;;;;18.84;75.89;97801.69;596241;238;66821;-71
2022/10/10 02:38:46;;;;;;;;;;;;;;;18.84;75.73;97801.69;596300;238;62899;-71
2022/10/10 02:41:15;;;;;;;;;;;;;;;18.84;76.07;97807.01;595471;237;66723;-71
2022/10/10 02:43:42;;;;;;;;;;;;;;;18.84;76.19;97804.34;593172;239;66537;-71
2022/10/10 02:46:11;;;;;;;;;;;;;;;18.84;76.62;97808.88;593210;239;64899;-71
2022/10/10 02:48:39;;;;;;;;;;;;;;;18.84;75.99;97806.20;593197;239;66493;-71
2022/10/10 02:51:07;;;;;;;;;;;;;;;18.85;76.29;97802.48;593204;239;63995;-71
2022/10/10 02:53:36;;;;;;;;;;;;;;;18.84;76.10;97806.20;593239;239;65086;-71
2022/10/10 02:56:04;;;;;;;;;;;;;;;18.85;75.69;97802.48;593196;238;66906;-72
2022/10/10 02:58:32;;;;;;;;;;;;;;;18.84;75.41;97800.88;593193;239;66277;-72
2022/10/10 03:00:59;;;;;;;;;;;;;;;18.84;75.74;97803.55;593208;239;62645;-72
2022/10/10 03:03:27;;;;;;;;;;;;;;;18.84;76.17;97801.69;593182;239;64357;-72
2022/10/10 03:05:55;;;;;;;;;;;;;;;18.84;76.04;97806.20;593212;237;66142;-72
2022/10/10 03:08:22;;;;;;;;;;;;;;;18.84;76.01;97800.88;593163;239;65958;-72
2022/10/10 03:10:57;;;;;;;;;;;;;;;18.83;76.00;97805.41;593201;239;66171;-72
2022/10/10 03:13:25;;;;;;;;;;;;;;;18.83;75.97;97805.41;593119;237;63983;-72
2022/10/10 03:15:53;;;;;;;;;;;;;;;18.84;75.94;97808.88;593137;239;64926;-73
2022/10/10 03:18:20;;;;;;;;;;;;;;;18.83;76.04;97812.59;593206;239;66760;-72
2022/10/10 03:20:52;;;;;;;;;;;;;;;18.83;76.09;97810.73;593168;237;66668;-72
2022/10/10 03:23:19;;;;;;;;;;;;;;;18.83;76.18;97817.92;593173;239;66050;-72
2022/10/10 03:25:47;;;;;;;;;;;;;;;18.83;76.25;97815.25;593120;239;66477;-72
2022/10/10 03:28:16;;;;;;;;;;;;;;;18.82;76.22;97817.11;593187;237;64147;-72
2022/10/10 03:30:43;;;;;;;;;;;;;;;18.83;75.99;97818.72;593188;239;65289;-72
2022/10/10 03:33:11;;;;;;;;;;;;;;;18.82;75.90;97819.78;593162;239;65343;-73
2022/10/10 03:35:39;;;;;;;;;;;;;;;18.83;75.71;97821.38;593183;239;65186;-73
2022/10/10 03:38:06;;;;;;;;;;;;;;;18.82;76.10;97819.78;593171;239;65017;-72
2022/10/10 03:40:35;;;;;;;;;;;;;;;18.82;76.03;97822.44;593199;239;64358;-73
2022/10/10 03:43:03;;;;;;;;;;;;;;;18.82;75.88;97825.10;587945;241;64113;-73
2022/10/10 03:45:30;;;;;;;;;;;;;;;18.82;76.41;97825.10;587960;241;63741;-73
2022/10/10 03:47:58;;;;;;;;;;;;;;;18.82;76.38;97822.44;587975;241;64374;-73
2022/10/10 03:50:25;;;;;;;;;;;;;;;18.82;76.37;97830.43;587965;241;64381;-72
2022/10/10 03:52:53;;;;;;;;;;;;;;;18.82;76.21;97824.27;588029;239;62838;-72
2022/10/10 03:55:20;;;;;;;;;;;;;;;18.81;76.03;97826.13;587912;241;64452;-72
2022/10/10 03:57:48;;;;;;;;;;;;;;;18.82;75.74;97824.27;587987;239;64317;-72
2022/10/10 04:00:15;;;;;;;;;;;;;;;18.82;75.88;97824.27;587986;241;64887;-72
2022/10/10 04:02:43;;;;;;;;;;;;;;;18.81;76.69;97818.14;587968;241;64330;-72
2022/10/10 04:05:10;;;;;;;;;;;;;;;18.82;76.59;97818.94;587996;241;66613;-72
2022/10/10 04:07:40;;;;;;;;;;;;;;;18.81;76.23;97820.80;587986;239;64929;-72
2022/10/10 04:10:08;;;;;;;;;;;;;;;18.82;76.81;97818.94;587919;241;65186;-72
2022/10/10 04:12:36;;;;;;;;;;;;;;;18.81;76.33;97823.47;587973;241;66875;-72
2022/10/10 04:15:10;;;;;;;;;;;;;;;18.80;75.85;97819.20;587917;241;64977;-73
2022/10/10 04:17:37;;;;;;;;;;;;;;;18.81;76.46;97823.47;587851;241;67270;-73
2022/10/10 04:20:11;;;;;;;;;;;;;;;18.82;76.24;97817.11;588016;241;46427;-73
2022/10/10 04:22:39;;;;;;;;;;;;;;;18.81;75.40;97822.66;587932;239;63758;-72
2022/10/10 04:25:06;;;;;;;;;;;;;;;18.81;76.07;97815.48;587888;238;66814;-73
2022/10/10 04:27:34;;;;;;;;;;;;;;;18.81;75.96;97809.34;587959;241;66782;-73
2022/10/10 04:30:01;;;;;;;;;;;;;;;18.80;76.16;97805.88;587953;241;64889;-73
2022/10/10 04:32:29;;;;;;;;;;;;;;;18.81;76.14;97806.69;588025;241;64629;-72
2022/10/10 04:34:56;;;;;;;;;;;;;;;18.79;76.25;97806.91;587899;239;65583;-72
2022/10/10 04:37:24;;;;;;;;;;;;;;;18.80;76.00;97805.88;587905;241;62777;-72
2022/10/10 04:39:51;;;;;;;;;;;;;;;18.80;76.06;97808.55;587881;241;64309;-73
2022/10/10 04:42:19;;;;;;;;;;;;;;;18.80;76.11;97810.41;591551;238;65498;-72
2022/10/10 04:44:46;;;;;;;;;;;;;;;18.80;76.16;97811.21;593139;239;64002;-72
2022/10/10 04:47:14;;;;;;;;;;;;;;;18.80;75.93;97816.53;593129;239;64602;-73
2022/10/10 04:49:41;;;;;;;;;;;;;;;18.80;76.29;97819.20;593108;239;64556;-72
2022/10/10 04:52:09;;;;;;;;;;;;;;;18.80;76.55;97815.73;593111;239;62795;-72
2022/10/10 04:54:37;;;;;;;;;;;;;;;18.80;76.43;97816.53;593144;239;65523;-72
2022/10/10 04:57:05;;;;;;;;;;;;;;;18.79;76.27;97822.89;593194;239;64769;-72
2022/10/10 04:59:32;;;;;;;;;;;;;;;18.80;76.70;97826.38;593168;237;64961;-72
2022/10/10 05:02:00;;;;;;;;;;;;;;;18.80;76.38;97821.06;593131;237;64336;-72
2022/10/10 05:04:27;;;;;;;;;;;;;;;18.80;76.21;97818.39;593117;239;64729;-72
2022/10/10 05:06:55;;;;;;;;;;;;;;;18.80;75.89;97829.05;593163;239;64978;-72
2022/10/10 05:09:22;;;;;;;;;;;;;;;18.80;76.09;97826.38;593182;239;64285;-72
2022/10/10 05:11:50;;;;;;;;;;;;;;;18.79;76.29;97828.21;593181;239;65454;-72
2022/10/10 05:14:17;;;;;;;;;;;;;;;18.79;75.99;97830.08;593151;239;62801;-72
2022/10/10 05:16:45;;;;;;;;;;;;;;;18.79;75.80;97825.55;593137;239;64399;-72
2022/10/10 05:19:12;;;;;;;;;;;;;;;18.80;76.13;97821.06;593093;239;66723;-72
2022/10/10 05:21:40;;;;;;;;;;;;;;;18.79;76.00;97825.55;593154;239;65048;-72
2022/10/10 05:24:07;;;;;;;;;;;;;;;18.79;75.79;97822.08;593161;239;66669;-72
2022/10/10 05:26:35;;;;;;;;;;;;;;;18.78;75.44;97826.61;593084;239;66632;-72
2022/10/10 05:29:02;;;;;;;;;;;;;;;18.79;75.59;97824.75;593112;239;63747;-72
2022/10/10 05:31:30;;;;;;;;;;;;;;;18.79;75.95;97836.20;593125;239;65820;-72
2022/10/10 05:33:57;;;;;;;;;;;;;;;18.78;75.92;97829.27;593144;239;66614;-72
2022/10/10 05:36:25;;;;;;;;;;;;;;;18.79;75.91;97830.08;593163;239;65044;-72
2022/10/10 05:38:52;;;;;;;;;;;;;;;18.79;75.87;97830.08;593137;239;66769;-72
2022/10/10 05:41:20;;;;;;;;;;;;;;;18.79;76.20;97836.20;594080;236;66590;-72
2022/10/10 05:43:47;;;;;;;;;;;;;;;18.78;75.74;97841.78;596136;238;62831;-70
2022/10/10 05:46:15;;;;;;;;;;;;;;;18.79;75.66;97840.73;596275;237;67558;-67
2022/10/10 05:48:42;;;;;;;;;;;;;;;18.79;74.82;97841.53;596326;238;64585;-71
2022/10/10 05:51:11;;;;;;;;;;;;;;;18.78;76.33;97842.58;596223;238;64908;-72
2022/10/10 05:53:39;;;;;;;;;;;;;;;18.78;76.20;97852.44;596254;238;64819;-72
2022/10/10 05:56:07;;;;;;;;;;;;;;;18.78;77.03;97847.11;596233;237;64633;-71
2022/10/10 05:58:34;;;;;;;;;;;;;;;18.77;77.81;97843.64;596267;238;66047;-71
2022/10/10 06:01:03;;;;;;;;;;;;;;;18.75;76.57;97840.40;596304;235;67700;-72
2022/10/10 06:03:31;;;;;;;;;;;;;;;18.76;76.04;97844.67;596251;237;67680;-71
2022/10/10 06:05:59;;;;;;;;;;;;;;;18.76;76.30;97843.86;595754;235;62843;-72
2022/10/10 06:08:26;;;;;;;;;;;;;;;18.75;75.54;97840.40;596114;238;66836;-64
2022/10/10 06:10:54;;;;;;;;;;;;;;;18.76;75.37;97851.85;596217;235;66351;-73
2022/10/10 06:13:21;;;;;;;;;;;;;;;18.76;71.21;97847.33;596557;237;65267;-74
2022/10/10 06:15:50;;;;;;;;;;;;;;;18.80;72.86;97848.48;598147;237;66759;-74
2022/10/10 06:18:18;;;;;;;;;;;;;;;18.81;72.59;97851.95;596797;237;65833;-75
2022/10/10 06:20:46;;;;;;;;;;;;;;;18.83;75.19;97852.54;596184;238;62877;-77
2022/10/10 06:23:13;;;;;;;;;;;;;;;18.84;75.50;97848.81;596185;237;66971;-73
2022/10/10 06:25:41;;;;;;;;;;;;;;;18.84;75.75;97851.48;596164;238;64626;-73
2022/10/10 06:28:09;;;;;;;;;;;;;;;18.83;74.95;97850.68;596228;238;64935;-72
2022/10/10 06:30:40;;;;;;;;;;;;;;;18.82;75.58;97850.91;596240;238;66969;-71
2022/10/10 06:33:08;;;;;;;;;;;;;;;18.81;76.40;97844.77;596216;238;66847;-72
2022/10/10 06:35:37;;;;;;;;;;;;;;;18.80;75.95;97845.83;596143;238;65256;-75
2022/10/10 06:38:05;;;;;;;;;;;;;;;18.79;76.17;97846.05;596255;238;66549;-73
2022/10/10 06:40:32;;;;;;;;;;;;;;;18.80;76.06;97845.83;596256;238;64548;-74
2022/10/10 06:43:00;;;;;;;;;;;;;;;18.79;75.75;97844.19;606759;233;62811;-71
2022/10/10 06:45:27;;;;;;;;;;;;;;;18.79;75.60;97852.18;606912;233;67888;-73
2022/10/10 06:47:55;;;;;;;;;;;;;;;18.79;75.70;97846.85;606993;233;66665;-73
2022/10/10 06:50:22;;;;;;;;;;;;;;;18.79;75.81;97840.73;606866;233;65144;-73
2022/10/10 06:52:50;;;;;;;;;;;;;;;18.80;72.50;97842.36;606437;233;64597;-73
2022/10/10 06:55:17;;;;;;;;;;;;;;;18.81;74.85;97844.77;607011;233;64586;-73
2022/10/10 06:57:45;;;;;;;;;;;;;;;18.80;75.98;97842.36;606433;233;62827;-72
2022/10/10 07:00:13;;;;;;;;;;;;;;;18.81;76.72;97841.30;607063;233;64372;-72
2022/10/10 07:02:41;;;;;;;;;;;;;;;18.80;76.61;97839.70;606968;233;66565;-72
2022/10/10 07:05:12;;;;;;;;;;;;;;;18.80;76.50;97848.48;606984;233;62770;-67
2022/10/10 07:07:39;;;;;;;;;;;;;;;18.79;76.34;97833.53;606850;233;66591;-73
2022/10/10 07:10:08;;;;;;;;;;;;;;;18.79;75.91;97830.08;606904;233;67235;-72
2022/10/10 07:12:37;;;;;;;;;;;;;;;18.78;74.29;97833.79;606984;233;62808;-74
2022/10/10 07:15:05;;;;;;;;;;;;;;;18.76;70.67;97833.21;607028;232;64274;-74
2022/10/10 07:17:33;;;;;;;;;;;;;;;18.80;71.05;97837.03;606886;233;64295;-76
2022/10/10 07:20:01;;;;;;;;;;;;;;;18.81;74.87;97841.30;607024;233;64977;-75
2022/10/10 07:22:28;;;;;;;;;;;;;;;18.81;75.48;97841.30;606953;233;67428;-75
2022/10/10 07:24:56;;;;;;;;;;;;;;;18.81;75.97;97842.11;606899;233;67239;-75
2022/10/10 07:27:23;;;;;;;;;;;;;;;18.81;75.86;97841.30;606907;233;66021;-74
2022/10/10 07:29:51;;;;;;;;;;;;;;;18.80;76.07;97835.17;606695;231;66896;-74
2022/10/10 07:32:18;;;;;;;;;;;;;;;18.81;76.42;97833.31;606833;233;64796;-74
2022/10/10 07:34:45;;;;;;;;;;;;;;;18.80;76.04;97837.84;607004;233;62849;-72
2022/10/10 07:37:13;;;;;;;;;;;;;;;18.81;75.75;97834.12;606988;233;64595;-72
2022/10/10 07:39:41;;;;;;;;;;;;;;;18.81;76.34;97834.12;606812;233;64636;-73
2022/10/10 07:42:08;;;;;;;;;;;;;;;18.81;76.46;97838.64;606980;233;64795;-73
2022/10/10 07:44:36;;;;;;;;;;;;;;;18.80;75.55;97837.03;606952;233;66803;-73
2022/10/10 07:47:03;;;;;;;;;;;;;;;18.82;75.46;97837.59;606913;233;66842;-71
2022/10/10 07:49:31;;;;;;;;;;;;;;;18.81;75.66;97834.12;607002;233;65147;-71
2022/10/10 07:51:58;;;;;;;;;;;;;;;18.82;76.03;97837.59;606968;233;66642;-74
2022/10/10 07:54:26;;;;;;;;;;;;;;;18.81;76.04;97833.31;606985;233;67489;-73
2022/10/10 07:56:53;;;;;;;;;;;;;;;18.81;75.62;97839.45;606908;233;66075;-73
2022/10/10 07:59:21;;;;;;;;;;;;;;;18.81;75.64;97839.45;606955;233;68373;-73
2022/10/10 08:01:49;;;;;;;;;;;;;;;18.83;75.55;97841.89;606921;233;64611;-72
2022/10/10 08:04:17;;;;;;;;;;;;;;;18.83;76.09;97847.21;606977;231;66020;-72
2022/10/10 08:06:45;;;;;;;;;;;;;;;18.81;75.38;97834.12;606910;233;66674;-73
2022/10/10 08:09:12;;;;;;;;;;;;;;;18.82;75.42;97840.25;606980;233;64557;-72
2022/10/10 08:11:40;;;;;;;;;;;;;;;18.83;75.42;97847.21;606892;231;63753;-73
2022/10/10 08:14:07;;;;;;;;;;;;;;;18.81;75.73;97836.78;606980;233;64272;-73
2022/10/10 08:16:35;;;;;;;;;;;;;;;18.82;75.48;97840.25;606929;233;66852;-72
2022/10/10 08:19:03;;;;;;;;;;;;;;;18.81;76.05;97834.12;606975;233;65918;-75
2022/10/10 08:21:31;;;;;;;;;;;;;;;18.81;75.82;97839.45;606902;233;64509;-73
2022/10/10 08:23:58;;;;;;;;;;;;;;;18.81;76.11;97842.11;606924;233;67543;-74
2022/10/10 08:26:26;;;;;;;;;;;;;;;18.82;76.04;97842.91;596239;234;63805;-75
2022/10/10 08:28:53;;;;;;;;;;;;;;;18.81;76.15;97847.44;596147;238;65561;-71
2022/10/10 08:31:21;;;;;;;;;;;;;;;18.81;75.92;97842.11;596197;238;64793;-72
2022/10/10 08:33:50;;;;;;;;;;;;;;;18.81;76.38;97839.45;596249;238;65621;-72
2022/10/10 08:36:19;;;;;;;;;;;;;;;18.81;76.19;97844.77;596158;238;64337;-73
2022/10/10 08:38:47;;;;;;;;;;;;;;;18.81;76.25;97844.77;596071;238;66319;-72
2022/10/10 08:41:32;;;;;;;;;;;;;;;18.80;76.21;97840.50;595961;237;64856;-66
2022/10/10 08:44:03;;;;;;;;;;;;;;;18.82;76.21;97848.23;587381;241;67164;-74
2022/10/10 08:46:51;;;;;;;;;;;;;;;18.81;76.27;97841.30;592977;238;64813;-76
2022/10/10 08:49:26;;;;;;;;;;;;;;;18.80;72.84;97834.38;594000;238;64889;-74
2022/10/10 08:51:55;;;;;;;;;;;;;;;18.83;72.31;97841.89;593005;239;67461;-73
2022/10/10 08:54:25;;;;;;;;;;;;;;;18.84;75.86;97838.16;592658;237;66623;-74
2022/10/10 08:56:54;;;;;;;;;;;;;;;18.82;76.48;97841.08;593058;239;65143;-75
2022/10/10 08:59:23;;;;;;;;;;;;;;;18.82;76.61;97835.75;593035;239;66842;-75
2022/10/10 09:01:52;;;;;;;;;;;;;;;18.81;76.63;97836.78;593042;239;66513;-75
2022/10/10 09:04:20;;;;;;;;;;;;;;;18.80;76.56;97837.84;592998;239;66167;-66
2022/10/10 09:07:07;;;;;;;;;;;;;;;18.78;73.32;97837.26;593062;239;64207;-77
2022/10/10 09:09:39;;;;;;;;;;;;;;;18.80;72.75;97832.52;592836;239;64312;-75
2022/10/10 09:12:11;;;;;;;;;;;;;;;18.81;74.82;97839.45;592993;239;64962;-76
2022/10/10 09:14:53;;;;;;;;;;;;;;;18.81;75.85;97841.30;593095;239;65852;-76
2022/10/10 09:17:34;;;;;;;;;;;;;;;18.78;76.53;97834.59;593142;239;65599;-73
2022/10/10 09:20:18;;;;;;;;;;;;;;;18.77;75.47;97832.98;592924;239;63920;-78
2022/10/10 09:22:53;;;;;;;;;;;;;;;18.76;74.44;97836.67;593111;239;66960;-74
2022/10/10 09:25:25;;;;;;;;;;;;;;;18.76;75.30;97839.34;592388;239;65537;-74
2022/10/10 09:27:54;;;;;;;;;;;;;;;18.76;75.88;97830.55;593060;239;65132;-74
2022/10/10 09:30:22;;;;;;;;;;;;;;;18.76;75.74;97830.55;592656;239;67740;-72
2022/10/10 09:32:57;;;;;;;;;;;;;;;18.77;74.83;97832.16;593053;239;67619;-73
2022/10/10 09:35:27;;;;;;;;;;;;;;;18.76;75.00;97830.55;592084;239;64967;-74
2022/10/10 09:37:58;;;;;;;;;;;;;;;18.76;74.92;97828.69;593123;239;66556;-75
2022/10/10 09:40:32;;;;;;;;;;;;;;;18.76;75.06;97828.69;593144;237;64643;-75
2022/10/10 09:43:01;;;;;;;;;;;;;;;18.76;75.02;97828.69;594999;238;66623;-76
2022/10/10 09:45:33;;;;;;;;;;;;;;;18.76;75.28;97833.21;593740;235;67034;-75
2022/10/10 09:48:01;;;;;;;;;;;;;;;18.76;75.38;97828.69;591253;240;66975;-75
2022/10/10 09:50:28;;;;;;;;;;;;;;;18.76;75.17;97820.70;591376;240;64836;-75
2022/10/10 09:52:56;;;;;;;;;;;;;;;18.76;75.48;97822.56;591693;238;64546;-75
2022/10/10 09:55:25;;;;;;;;;;;;;;;18.77;75.58;97826.83;596235;238;64232;-75
2022/10/10 09:57:54;;;;;;;;;;;;;;;18.76;75.29;97814.57;596292;238;65112;-75
2022/10/10 10:00:23;;;;;;;;;;;;;;;18.77;75.05;97818.84;596335;238;67661;-74
2022/10/10 10:02:52;;;;;;;;;;;;;;;18.76;74.63;97823.36;596157;238;66948;-73
2022/10/10 10:05:26;;;;;;;;;;;;;;;18.76;74.79;97818.04;595975;237;65147;-74
2022/10/10 10:07:53;;;;;;;;;;;;;;;18.76;74.81;97817.23;596315;238;66949;-73
2022/10/10 10:10:31;;;;;;;;;;;;;;;18.76;74.96;97818.04;596289;235;67499;-73
2022/10/10 10:12:59;;;;;;;;;;;;;;;18.77;74.94;97813.52;596213;238;62781;-67
2022/10/10 10:15:28;;;;;;;;;;;;;;;18.76;72.99;97809.25;596232;238;64594;-74
2022/10/10 10:17:58;;;;;;;;;;;;;;;18.79;68.96;97808.77;596275;238;67570;-72
2022/10/10 10:20:33;;;;;;;;;;;;;;;18.80;68.22;97805.88;594513;238;64824;-73
2022/10/10 10:23:00;;;;;;;;;;;;;;;18.82;66.89;97797.64;596269;238;64288;-72
2022/10/10 10:25:34;;;;;;;;;;;;;;;18.84;67.05;97800.88;598047;237;64592;-73
2022/10/10 10:28:12;;;;;;;;;;;;;;;18.84;68.31;97799.02;597457;234;62828;-75
2022/10/10 10:30:40;;;;;;;;;;;;;;;18.85;69.25;97800.66;595861;237;64837;-73
2022/10/10 10:33:28;;;;;;;;;;;;;;;18.85;72.80;97797.16;589132;238;67540;-73
2022/10/10 10:36:00;;;;;;;;;;;;;;;18.84;73.37;97801.69;589117;238;62898;-72
2022/10/10 10:38:44;;;;;;;;;;;;;;;18.83;73.85;97792.09;589459;240;64393;-72
2022/10/10 10:41:29;;;;;;;;;;;;;;;18.82;73.70;97797.64;591609;238;66679;-73
2022/10/10 10:44:02;;;;;;;;;;;;;;;18.81;74.00;97788.84;596036;238;65167;-73
2022/10/10 10:46:34;;;;;;;;;;;;;;;18.81;74.28;97783.52;595048;238;67791;-72
2022/10/10 10:49:03;;;;;;;;;;;;;;;18.82;74.06;97781.66;595075;238;64493;-73
2022/10/10 10:51:32;;;;;;;;;;;;;;;18.81;74.08;97785.38;595267;238;63027;-72
2022/10/10 10:54:11;;;;;;;;;;;;;;;18.81;72.82;97785.38;595398;238;64654;-74
2022/10/10 10:56:42;;;;;;;;;;;;;;;18.80;73.86;97773.92;596258;238;64367;-73
2022/10/10 10:59:28;;;;;;;;;;;;;;;18.81;72.87;97780.86;595982;238;65125;-72
2022/10/10 11:01:58;;;;;;;;;;;;;;;18.80;71.92;97776.59;596200;238;65539;-73
2022/10/10 11:04:44;;;;;;;;;;;;;;;18.82;72.87;97786.98;596168;238;66878;-72
2022/10/10 11:07:18;;;;;;;;;;;;;;;18.82;72.93;97786.98;596667;237;65462;-73
2022/10/10 11:09:44;;;;;;;;;;;;;;;18.81;71.84;97770.20;596585;235;66683;-72
2022/10/10 11:12:17;;;;;;;;;;;;;;;18.82;72.07;97774.50;596694;237;66081;-73
2022/10/10 11:14:49;;;;;;;;;;;;;;;18.82;72.56;97774.50;596341;237;65001;-74
2022/10/10 11:17:18;;;;;;;;;;;;;;;18.83;72.95;97775.31;596610;237;67275;-72
2022/10/10 11:19:57;;;;;;;;;;;;;;;18.81;71.32;97759.55;596600;237;65569;-76
2022/10/10 11:22:29;;;;;;;;;;;;;;;18.82;69.72;97763.86;596526;237;62930;-74
2022/10/10 11:25:01;;;;;;;;;;;;;;;18.83;69.34;97762.80;596424;237;66720;-75
2022/10/10 11:27:42;;;;;;;;;;;;;;;18.85;69.50;97765.20;596627;237;66536;-74
2022/10/10 11:30:17;;;;;;;;;;;;;;;18.84;69.46;97764.40;596805;237;64983;-73
2022/10/10 11:32:56;;;;;;;;;;;;;;;18.86;69.50;97761.52;596616;237;63536;-75
2022/10/10 11:35:40;;;;;;;;;;;;;;;18.85;69.54;97755.38;598573;236;64827;-72
2022/10/10 11:38:18;;;;;;;;;;;;;;;18.86;69.60;97761.52;598107;236;65038;-73
2022/10/10 11:40:47;;;;;;;;;;;;;;;18.87;69.43;97765.78;596498;237;64368;-73
2022/10/10 11:43:19;;;;;;;;;;;;;;;18.85;69.34;97758.05;595931;238;64622;-73
2022/10/10 11:45:48;;;;;;;;;;;;;;;18.87;69.18;97756.98;595942;238;64896;-73
2022/10/10 11:48:17;;;;;;;;;;;;;;;18.87;69.09;97751.66;595253;238;66829;-72
2022/10/10 11:50:44;;;;;;;;;;;;;;;18.88;69.16;97748.77;596054;238;66661;-78
2022/10/10 11:53:14;;;;;;;;;;;;;;;18.89;69.02;97749.58;596220;238;65173;-73
2022/10/10 11:55:48;;;;;;;;;;;;;;;18.89;69.00;97746.91;596095;238;64497;-75
2022/10/10 11:58:18;;;;;;;;;;;;;;;18.90;68.97;97756.50;596164;238;69837;-75
2022/10/10 12:00:47;;;;;;;;;;;;;;;18.89;68.99;97745.05;594319;238;65019;-75
2022/10/10 12:03:15;;;;;;;;;;;;;;;18.90;69.00;97740.53;596187;238;67240;-74
2022/10/10 12:05:44;;;;;;;;;;;;;;;18.90;69.00;97745.85;596171;238;66525;-71
2022/10/10 12:08:25;;;;;;;;;;;;;;;18.90;69.02;97745.85;596034;238;64945;-72
2022/10/10 12:10:54;;;;;;;;;;;;;;;18.90;69.00;97751.18;596035;237;64378;-73
2022/10/10 12:13:24;;;;;;;;;;;;;;;18.90;69.03;97732.53;596195;238;65498;-73
2022/10/10 12:15:53;;;;;;;;;;;;;;;18.90;69.03;97737.86;596307;238;62848;-74
2022/10/10 12:18:25;;;;;;;;;;;;;;;18.91;69.06;97731.51;596201;238;64763;-75
2022/10/10 12:21:03;;;;;;;;;;;;;;;18.91;69.46;97744.83;596230;238;64568;-71
2022/10/10 12:23:31;;;;;;;;;;;;;;;18.91;69.85;97742.16;595999;238;62789;-73
2022/10/10 12:25:59;;;;;;;;;;;;;;;18.90;69.63;97745.85;596207;238;65565;-74
2022/10/10 12:28:29;;;;;;;;;;;;;;;18.90;69.61;97743.99;596223;236;66614;-73
2022/10/10 12:30:58;;;;;;;;;;;;;;;18.90;69.55;97745.85;596172;238;63623;-75
2022/10/10 12:33:27;;;;;;;;;;;;;;;18.93;69.29;97750.70;596151;237;64799;-72
2022/10/10 12:35:55;;;;;;;;;;;;;;;18.94;68.82;97744.34;596120;238;67163;-74
2022/10/10 12:38:23;;;;;;;;;;;;;;;18.96;67.89;97737.73;596089;238;63641;-73
2022/10/10 12:40:58;;;;;;;;;;;;;;;18.97;68.16;97735.87;596236;237;67076;-72
2022/10/10 12:43:46;;;;;;;;;;;;;;;18.97;68.19;97730.54;596717;237;66817;-73
2022/10/10 12:46:15;;;;;;;;;;;;;;;18.96;68.42;97729.73;596246;237;64724;-74
2022/10/10 12:48:43;;;;;;;;;;;;;;;18.97;68.52;97730.54;596705;237;67280;-72
2022/10/10 12:51:21;;;;;;;;;;;;;;;19.00;69.73;97740.71;596725;237;64862;-72
2022/10/10 12:53:50;;;;;;;;;;;;;;;18.97;69.53;97734.01;596610;237;66333;-71
2022/10/10 12:56:22;;;;;;;;;;;;;;;18.96;69.25;97736.90;596751;237;46588;-72
2022/10/10 12:58:50;;;;;;;;;;;;;;;18.96;68.81;97734.23;596275;237;66804;-70
2022/10/10 13:01:25;;;;;;;;;;;;;;;18.96;68.65;97740.39;596568;237;63784;-71